Terminal Aerodrome Forecast
Issued by NWS Norman, OK

Home | Current Version | Previous Version | Text Only | Print | Product List | Glossary On
Versions: 1 2 3 4 5 6 7 8 9 10 11 12 13 14 15 16 17 18 19 20 21 22 23 24 25
000
FTUS44 KOUN 212330
TAFOKC
TAF
KOKC 212330Z 2200/2224 21018G28KT P6SM SCT080
     FM220100 22014KT P6SM SKC
     FM220500 25017G25KT P6SM SCT150
     FM221400 29025G34KT P6SM BKN025
     FM222100 31024G32KT P6SM FEW080=

USA.gov is the U.S. government's official web portal to all federal, state and local government web resources and services.